createdAt,value
2023-02-05T00:03:50.600Z,42.42
2023-02-05T00:08:52.755Z,39.13
2023-02-05T00:13:54.899Z,39.30
2023-02-05T00:18:57.549Z,41.95
2023-02-05T00:23:59.551Z,42.83
2023-02-05T00:29:01.825Z,37.72
2023-02-05T00:34:03.734Z,41.08
2023-02-05T00:39:05.718Z,40.92
2023-02-05T00:44:07.598Z,42.25
2023-02-05T00:49:09.367Z,45.85
2023-02-05T00:54:11.527Z,39.25
2023-02-05T00:59:13.397Z,39.28
2023-02-05T01:04:15.334Z,42.05
2023-02-05T01:09:17.145Z,41.15
2023-02-05T01:14:18.924Z,35.72
2023-02-05T01:19:20.738Z,44.28
2023-02-05T01:24:22.512Z,36.45
2023-02-05T01:29:29.353Z,40.60
2023-02-05T01:34:31.526Z,40.42
2023-02-05T01:39:33.374Z,35.75
2023-02-05T01:44:36.363Z,38.33
2023-02-05T01:49:43.624Z,38.03
2023-02-05T01:54:48.777Z,30.52
2023-02-05T01:59:51.234Z,33.58
2023-02-05T02:04:56.784Z,29.40
2023-02-05T02:09:59.059Z,35.47
2023-02-05T02:15:06.690Z,31.63
2023-02-05T02:20:14.209Z,31.08
2023-02-05T02:25:34.658Z,34.90
2023-02-05T02:30:56.674Z,23.52
2023-02-05T02:36:09.246Z,28.40
2023-02-05T02:41:19.865Z,33.20
2023-02-05T02:46:28.217Z,26.13
2023-02-05T02:51:31.886Z,28.13
2023-02-05T02:56:36.048Z,31.05
2023-02-05T03:01:44.663Z,23.45
2023-02-05T03:06:54.307Z,21.95
2023-02-05T03:11:56.120Z,23.80
2023-02-05T03:16:57.954Z,17.95
2023-02-05T03:22:04.192Z,17.15
2023-02-05T03:27:06.474Z,17.60
2023-02-05T03:32:28.935Z,13.85
2023-02-05T03:38:03.232Z,18.98
2023-02-05T03:43:34.191Z,17.95
2023-02-05T03:48:48.589Z,18.42
2023-02-05T03:54:18.474Z,12.38
2023-02-05T03:59:22.083Z,14.57
2023-02-05T04:04:24.268Z,13.20
2023-02-05T04:09:26.030Z,13.23
2023-02-05T04:14:27.809Z,11.57
2023-02-05T04:19:31.068Z,14.15
2023-02-05T04:24:33.084Z,15.05
2023-02-05T04:29:34.858Z,18.90
2023-02-05T04:34:36.682Z,10.38
2023-02-05T04:39:38.445Z,15.80
2023-02-05T04:44:40.237Z,9.90
2023-02-05T04:49:42.196Z,7.95
2023-02-05T04:54:44.071Z,9.50
2023-02-05T04:59:45.869Z,11.50
2023-02-05T05:04:47.620Z,11.05
2023-02-05T05:09:51.417Z,11.90
2023-02-05T05:14:54.234Z,13.23
2023-02-05T05:19:56.214Z,17.85
2023-02-05T05:24:58.018Z,14.27
2023-02-05T05:29:59.785Z,17.23
2023-02-05T05:35:01.712Z,16.60
2023-02-05T05:40:22.424Z,16.02
2023-02-05T05:45:24.432Z,12.95
2023-02-05T05:50:26.268Z,20.52
2023-02-05T05:55:28.053Z,24.48
2023-02-05T06:00:29.859Z,25.90
2023-02-05T06:05:32.938Z,25.50
2023-02-05T06:10:35.310Z,27.67
2023-02-05T06:15:37.962Z,26.75
2023-02-05T06:20:39.943Z,29.50
2023-02-05T06:25:41.752Z,29.73
2023-02-05T06:30:43.745Z,25.00
2023-02-05T06:35:46.528Z,27.80
2023-02-05T06:40:49.201Z,25.67
2023-02-05T06:45:50.997Z,29.00
2023-02-05T06:50:52.920Z,29.75
2023-02-05T06:55:58.516Z,29.63
2023-02-05T07:01:00.286Z,27.48
2023-02-05T07:06:04.412Z,25.80
2023-02-05T07:11:06.485Z,28.50
2023-02-05T07:16:08.733Z,21.52
2023-02-05T07:21:16.290Z,18.27
2023-02-05T07:26:18.680Z,8.38
2023-02-05T07:31:20.810Z,10.35
2023-02-05T07:36:22.640Z,5.25
2023-02-05T07:41:26.802Z,12.05
2023-02-05T07:46:28.852Z,5.00
2023-02-05T07:51:30.783Z,3.08
2023-02-05T07:56:32.574Z,6.32
2023-02-05T08:01:35.124Z,3.83
2023-02-05T08:06:36.886Z,4.88
2023-02-05T08:11:38.705Z,5.28
2023-02-05T08:16:40.582Z,6.93
2023-02-05T08:21:43.381Z,11.88
2023-02-05T08:26:45.373Z,7.85
2023-02-05T08:31:47.252Z,7.55
2023-02-05T08:36:49.333Z,7.78
2023-02-05T08:41:51.274Z,5.85
2023-02-05T08:46:53.169Z,4.40
2023-02-05T08:51:55.000Z,3.22
2023-02-05T08:56:57.509Z,12.23
2023-02-05T09:01:59.486Z,9.63
2023-02-05T09:07:01.255Z,11.85
2023-02-05T09:12:03.321Z,5.15
2023-02-05T09:17:07.246Z,9.65
2023-02-05T09:22:09.929Z,17.77
2023-02-05T09:27:14.362Z,8.90
2023-02-05T09:32:16.391Z,8.63
2023-02-05T09:37:18.608Z,10.55
2023-02-05T09:43:04.715Z,15.13
2023-02-05T09:48:10.501Z,11.60
2023-02-05T09:53:18.969Z,10.77
2023-02-05T09:58:31.130Z,5.85
2023-02-05T10:03:47.101Z,7.85
2023-02-05T10:08:58.613Z,19.73
2023-02-05T10:14:25.235Z,13.80
2023-02-05T10:19:47.518Z,17.10
2023-02-05T10:24:54.843Z,8.55
2023-02-05T10:30:15.909Z,10.23
2023-02-05T10:35:27.165Z,13.77
2023-02-05T10:40:32.875Z,10.05
2023-02-05T10:45:35.145Z,16.60
2023-02-05T10:51:05.893Z,13.82
2023-02-05T10:56:08.223Z,11.90
2023-02-05T11:01:17.550Z,21.10
2023-02-05T11:06:20.830Z,22.23
2023-02-05T11:11:29.074Z,19.95
2023-02-05T11:16:41.486Z,21.38
2023-02-05T11:22:24.236Z,15.55
2023-02-05T11:27:27.715Z,29.33
2023-02-05T11:32:36.601Z,20.35
2023-02-05T11:37:41.774Z,24.15
2023-02-05T11:42:50.965Z,17.27
2023-02-05T11:47:53.169Z,29.83
2023-02-05T11:52:56.708Z,20.33
2023-02-05T11:58:36.226Z,24.40
2023-02-05T12:03:38.937Z,25.58
2023-02-05T12:08:52.257Z,23.55
2023-02-05T12:14:07.459Z,24.50
2023-02-05T12:19:35.661Z,19.73
2023-02-05T12:24:40.609Z,14.95
2023-02-05T12:30:33.481Z,17.70
2023-02-05T12:35:51.959Z,16.63
2023-02-05T12:41:02.639Z,23.55
2023-02-05T12:46:13.607Z,11.80
2023-02-05T12:51:34.563Z,14.95
2023-02-05T12:56:52.599Z,16.55
2023-02-05T13:02:00.977Z,16.38
2023-02-05T13:07:26.387Z,16.10
2023-02-05T13:12:32.826Z,13.82
2023-02-05T13:17:40.812Z,16.83
2023-02-05T13:23:11.936Z,22.13
2023-02-05T13:28:40.475Z,19.02
2023-02-05T13:33:43.618Z,17.15
2023-02-05T13:39:07.321Z,14.80
2023-02-05T13:44:37.447Z,15.40
2023-02-05T13:49:50.668Z,15.13
2023-02-05T13:55:24.172Z,14.30
2023-02-05T14:00:27.762Z,9.93
2023-02-05T14:05:36.509Z,17.67
2023-02-05T14:10:42.284Z,20.77
2023-02-05T14:15:44.551Z,16.38
2023-02-05T14:20:46.384Z,13.50
2023-02-05T14:26:03.428Z,20.65
2023-02-05T14:31:07.542Z,15.38
2023-02-05T14:36:21.133Z,10.90
2023-02-05T14:41:33.791Z,11.02
2023-02-05T14:46:40.009Z,22.40
2023-02-05T14:51:48.728Z,16.70
2023-02-05T14:56:55.370Z,8.40
2023-02-05T15:01:59.428Z,16.35
2023-02-05T15:07:11.040Z,16.83
2023-02-05T15:13:04.258Z,8.80
2023-02-05T15:18:16.946Z,19.92
2023-02-05T15:23:32.499Z,15.85
2023-02-05T15:28:45.491Z,15.43
2023-02-05T15:33:58.575Z,13.18
2023-02-05T15:39:24.227Z,14.38
2023-02-05T15:44:30.122Z,10.57
2023-02-05T15:49:37.529Z,13.07
2023-02-05T15:54:40.103Z,12.65
2023-02-05T15:59:41.930Z,12.98
2023-02-05T16:04:43.798Z,16.77
2023-02-05T16:09:53.872Z,10.63
2023-02-05T16:15:07.685Z,13.75
2023-02-05T16:20:26.662Z,19.13
2023-02-05T16:25:44.510Z,14.20
2023-02-05T16:30:47.877Z,19.23
2023-02-05T16:35:49.829Z,17.40
2023-02-05T16:40:55.869Z,15.20
2023-02-05T16:46:07.000Z,16.65
2023-02-05T16:51:35.540Z,10.70
2023-02-05T16:56:59.715Z,13.70
2023-02-05T17:02:03.330Z,22.52
2023-02-05T17:07:17.907Z,15.57
2023-02-05T17:12:23.195Z,19.20
2023-02-05T17:17:26.924Z,16.42
2023-02-05T17:22:29.378Z,19.05
2023-02-05T17:27:37.841Z,40.10
2023-02-05T17:32:39.677Z,20.30
2023-02-05T17:37:41.532Z,24.45
2023-02-05T17:42:45.421Z,18.58
2023-02-05T17:47:49.059Z,22.67
2023-02-05T17:52:52.271Z,20.77
2023-02-05T17:57:54.464Z,15.95
2023-02-05T18:02:56.475Z,23.27
2023-02-05T18:07:59.705Z,18.60
2023-02-05T18:13:01.563Z,22.30
2023-02-05T18:18:03.494Z,26.25
2023-02-05T18:23:05.666Z,28.40
2023-02-05T18:28:07.459Z,26.83
2023-02-05T18:33:09.230Z,33.88
2023-02-05T18:38:11.129Z,23.05
2023-02-05T18:43:13.394Z,14.85
2023-02-05T18:48:15.228Z,32.78
2023-02-05T18:53:19.514Z,24.00
2023-02-05T18:58:21.367Z,19.95
2023-02-05T19:03:24.251Z,25.85
2023-02-05T19:08:26.120Z,30.42
2023-02-05T19:13:28.043Z,28.08
2023-02-05T19:18:31.829Z,28.73
2023-02-05T19:23:34.061Z,24.27
2023-02-05T19:28:36.714Z,22.88
2023-02-05T19:33:39.385Z,17.90
2023-02-05T19:38:42.151Z,24.13
2023-02-05T19:43:50.435Z,34.40
2023-02-05T19:48:53.139Z,25.65
2023-02-05T19:53:57.614Z,36.83
2023-02-05T19:58:59.500Z,43.33
2023-02-05T20:04:11.386Z,39.17
2023-02-05T20:09:14.514Z,29.15
2023-02-05T20:14:17.573Z,49.10
2023-02-05T20:19:19.868Z,27.52
2023-02-05T20:24:22.482Z,31.35
2023-02-05T20:29:43.057Z,30.00
2023-02-05T20:34:50.026Z,30.40
2023-02-05T20:39:51.889Z,35.83
2023-02-05T20:44:53.999Z,30.33
2023-02-05T20:49:55.822Z,46.92
2023-02-05T20:54:58.221Z,28.67
2023-02-05T20:59:59.985Z,36.33
2023-02-05T21:05:01.742Z,21.73
2023-02-05T21:10:06.218Z,28.52
2023-02-05T21:15:08.427Z,29.40
2023-02-05T21:20:10.656Z,23.40
2023-02-05T21:25:12.532Z,29.60
2023-02-05T21:30:15.022Z,46.75
2023-02-05T21:35:17.230Z,28.42
2023-02-05T21:40:19.078Z,29.80
2023-02-05T21:45:21.248Z,31.95
2023-02-05T21:50:23.369Z,26.73
2023-02-05T21:55:26.862Z,31.38
2023-02-05T22:00:28.706Z,30.42
2023-02-05T22:05:30.481Z,31.70
2023-02-05T22:10:32.421Z,28.30
2023-02-05T22:15:34.641Z,28.55
2023-02-05T22:20:36.624Z,19.50
2023-02-05T22:25:38.512Z,31.48
2023-02-05T22:30:41.270Z,36.80
2023-02-05T22:35:43.181Z,43.00
2023-02-05T22:40:44.946Z,41.33
2023-02-05T22:45:46.831Z,25.95
2023-02-05T22:50:48.856Z,29.35
2023-02-05T22:55:50.787Z,29.88
2023-02-05T23:00:52.662Z,25.08
2023-02-05T23:05:54.441Z,28.55
2023-02-05T23:10:56.415Z,37.00
2023-02-05T23:15:58.284Z,39.20
2023-02-05T23:21:00.118Z,35.40
2023-02-05T23:26:13.728Z,34.78
2023-02-05T23:31:16.786Z,34.50
2023-02-05T23:36:18.852Z,39.13
2023-02-05T23:41:36.176Z,36.53
2023-02-05T23:46:39.508Z,34.15
2023-02-05T23:51:41.878Z,40.08
2023-02-05T23:56:43.912Z,22.30
